Weather at Darby Dan Airport

Public forecast

Using degrees Fahrenheit for public forecast. Weather courtesy of forecast.io.

Closest aviation weather report (METAR) to Darby Dan Airport

Closest report is Bolton Field, 4.0 nm (7.4 km) SE. Retrieved 2021/07/28 15:50 UTC (1 hour ago):

KTZR 281550Z 29007KT 10SM BKN040 27/20 A3008

Closest aviation forecast (TAF) to Darby Dan Airport

Closest forecast is John Glenn Columbus International Airport, 14.8 nm (27.4 km) ENE. Retrieved 2021/07/28 12:34 UTC (4 hours ago):

TAF KCMH 281131Z 2812/2912 VRB03KT P6SM SKC FM281600 28007KT P6SM SCT040 BKN250 FM282200 31006KT P6SM VCSH SCT040 BKN250 FM290300 27005KT P6SM SCT250 FM291000 23006KT P6SM VCSH BKN100